Hilford, Kansas
Current Conditions -  °F | °C
As of 8:52 PM on Saturday 25 Oct 2014 (Local Time) from KPPF Reporting Station
Clear Clear  
Wind Chill: 69°   Ceiling: Unl
Heat Index: 69°   Visibility: 10mi
Dew Point: 64°   Wind: 0mph
Humidity: 84%   Direction: NA
Pressure: 30.01"   Gusts: NA
Location:  37.428°N, 95.6341°W
Report Text: KPPF 260152Z AUTO 00000KT 10SM CLR 21/18 A3001 RMK AO2 SLP155 T02060178
Loading
Personal Weather Stations






























Interactive Weather Map
Tropical Storm Tracking
New forecast layout! Learn more

10-Day Weather Forecast

Advertisements
Track Severe Weather on mobile